createdAt,value
2023-03-06T00:43:20.249Z,20.10
2023-03-06T00:44:20.195Z,20.10
2023-03-06T00:46:20.105Z,20.09
2023-03-06T00:47:20.049Z,20.11
2023-03-06T00:48:20.003Z,20.11
2023-03-06T00:49:19.985Z,20.08
2023-03-06T00:50:19.951Z,20.09
2023-03-06T00:51:19.897Z,20.10
2023-03-06T00:52:19.856Z,20.08
2023-03-06T00:53:19.782Z,20.14
2023-03-06T00:54:19.742Z,20.19
2023-03-06T00:55:19.738Z,20.20
2023-03-06T00:56:20.071Z,20.18
2023-03-06T00:57:19.605Z,20.17
2023-03-06T00:58:19.676Z,20.17
2023-03-06T00:59:19.501Z,20.15
2023-03-06T01:00:19.492Z,20.12
2023-03-06T01:01:19.487Z,20.14
2023-03-06T01:02:19.451Z,20.13
2023-03-06T01:03:19.335Z,20.11
2023-03-06T01:04:19.278Z,20.07
2023-03-06T01:05:19.253Z,20.06
2023-03-06T01:06:19.204Z,20.07
2023-03-06T01:07:19.162Z,20.07
2023-03-06T01:08:19.125Z,20.05
2023-03-06T01:09:19.072Z,20.07
2023-03-06T01:10:19.007Z,20.06
2023-03-06T01:11:18.991Z,20.03
2023-03-06T01:12:18.934Z,20.04
2023-03-06T01:13:18.885Z,20.03
2023-03-06T01:14:18.861Z,20.01
2023-03-06T01:15:18.838Z,20.01
2023-03-06T01:16:18.891Z,20.00
2023-03-06T01:17:18.713Z,20.00
2023-03-06T01:18:18.675Z,19.97
2023-03-06T01:19:18.627Z,19.98
2023-03-06T01:20:18.598Z,19.97
2023-03-06T01:21:18.555Z,19.95
2023-03-06T01:22:18.497Z,19.99
2023-03-06T01:23:18.452Z,19.95
2023-03-06T01:24:18.416Z,19.93
2023-03-06T01:25:18.385Z,19.90
2023-03-06T01:26:18.328Z,19.92
2023-03-06T01:27:18.295Z,19.92
2023-03-06T01:28:18.247Z,19.93
2023-03-06T01:29:18.212Z,19.90
2023-03-06T01:30:18.181Z,19.91
2023-03-06T01:31:18.185Z,19.85
2023-03-06T01:32:18.156Z,19.86
2023-03-06T01:33:18.802Z,19.89
2023-03-06T01:34:18.006Z,19.90
2023-03-06T01:35:18.045Z,19.88
2023-03-06T01:36:17.983Z,19.87
2023-03-06T01:37:17.904Z,19.87
2023-03-06T01:38:17.862Z,19.87
2023-03-06T01:39:17.855Z,19.84
2023-03-06T01:40:17.797Z,19.79
2023-03-06T01:41:17.762Z,19.81
2023-03-06T01:42:17.735Z,19.84
2023-03-06T01:43:17.692Z,19.83
2023-03-06T01:44:17.647Z,19.83
2023-03-06T01:45:17.644Z,19.83
2023-03-06T01:46:17.574Z,19.83
2023-03-06T01:47:17.531Z,19.83
2023-03-06T01:48:17.495Z,19.82
2023-03-06T01:49:17.466Z,19.82
2023-03-06T01:50:17.430Z,19.81
2023-03-06T01:51:17.403Z,19.81
2023-03-06T01:52:17.336Z,19.79
2023-03-06T01:53:17.312Z,19.80
2023-03-06T01:54:17.275Z,19.82
2023-03-06T01:55:17.236Z,19.79
2023-03-06T01:56:17.215Z,19.78
2023-03-06T01:57:17.208Z,19.77
2023-03-06T01:58:17.136Z,19.77
2023-03-06T01:59:17.107Z,19.77
2023-03-06T02:00:17.082Z,19.65
2023-03-06T02:01:17.129Z,19.75
2023-03-06T02:02:17.001Z,19.74
2023-03-06T02:03:16.942Z,19.76
2023-03-06T02:04:16.920Z,19.77
2023-03-06T02:05:16.877Z,19.77
2023-03-06T02:06:16.809Z,19.73
2023-03-06T02:07:16.776Z,19.75
2023-03-06T02:08:16.746Z,19.77
2023-03-06T02:09:16.715Z,19.73
2023-03-06T02:10:16.649Z,19.78
2023-03-06T02:11:16.628Z,19.76
2023-03-06T02:12:16.586Z,19.74
2023-03-06T02:13:16.536Z,19.75
2023-03-06T02:14:16.507Z,19.75
2023-03-06T02:15:16.448Z,19.73
2023-03-06T02:16:16.406Z,19.69
2023-03-06T02:17:16.404Z,19.71
2023-03-06T02:18:16.317Z,19.74
2023-03-06T02:19:16.309Z,19.72
2023-03-06T02:20:16.253Z,19.63
2023-03-06T02:21:16.223Z,19.71
2023-03-06T02:22:16.184Z,19.68
2023-03-06T02:23:16.157Z,19.69
2023-03-06T02:24:16.096Z,19.70
2023-03-06T02:25:16.062Z,19.70
2023-03-06T02:26:16.041Z,19.72
2023-03-06T02:27:16.333Z,19.69
2023-03-06T02:28:15.963Z,19.70
2023-03-06T02:29:16.013Z,19.70
2023-03-06T02:30:15.892Z,19.69
2023-03-06T02:31:15.927Z,19.70
2023-03-06T02:32:15.849Z,19.69
2023-03-06T02:33:15.782Z,19.66
2023-03-06T02:34:15.754Z,19.70
2023-03-06T02:35:15.728Z,19.68
2023-03-06T02:36:15.671Z,19.67
2023-03-06T02:37:15.652Z,19.61
2023-03-06T02:38:15.610Z,19.66
2023-03-06T02:39:15.557Z,19.68
2023-03-06T02:40:15.503Z,19.69
2023-03-06T02:41:15.481Z,19.68
2023-03-06T02:42:15.434Z,19.70
2023-03-06T02:43:15.375Z,19.69
2023-03-06T02:44:15.335Z,19.73
2023-03-06T02:45:15.304Z,19.72
2023-03-06T02:46:15.299Z,19.76
2023-03-06T02:47:15.222Z,19.76
2023-03-06T02:48:15.189Z,19.79
2023-03-06T02:49:15.150Z,19.78
2023-03-06T02:50:15.120Z,19.78
2023-03-06T02:51:15.056Z,19.80
2023-03-06T02:52:15.009Z,19.82
2023-03-06T02:53:14.977Z,19.81
2023-03-06T02:54:14.947Z,19.83
2023-03-06T02:55:14.885Z,19.83
2023-03-06T02:56:14.895Z,19.86
2023-03-06T02:57:14.837Z,19.84
2023-03-06T02:58:14.770Z,19.85
2023-03-06T02:59:14.765Z,19.88
2023-03-06T03:00:14.696Z,19.90
2023-03-06T03:01:14.686Z,19.90
2023-03-06T03:02:14.646Z,19.95
2023-03-06T03:03:14.590Z,19.94
2023-03-06T03:04:14.633Z,19.94
2023-03-06T03:05:14.517Z,19.94
2023-03-06T03:06:14.484Z,19.96
2023-03-06T03:07:14.465Z,19.94
2023-03-06T03:08:14.436Z,19.95
2023-03-06T03:09:14.399Z,19.99
2023-03-06T03:10:14.372Z,19.99
2023-03-06T03:11:14.318Z,19.98
2023-03-06T03:12:14.300Z,20.02
2023-03-06T03:13:14.269Z,20.01
2023-03-06T03:14:14.220Z,19.99
2023-03-06T03:15:14.162Z,20.02
2023-03-06T03:16:14.206Z,20.04
2023-03-06T03:17:14.088Z,20.04
2023-03-06T03:18:14.062Z,20.06
2023-03-06T03:19:14.044Z,20.06
2023-03-06T03:20:14.080Z,20.05
2023-03-06T03:21:13.927Z,20.06
2023-03-06T03:22:13.927Z,20.08
2023-03-06T03:23:13.837Z,20.08
2023-03-06T03:24:13.874Z,20.10
2023-03-06T03:25:13.821Z,20.10
2023-03-06T03:26:13.715Z,20.12
2023-03-06T03:27:13.693Z,20.12
2023-03-06T03:28:13.647Z,20.12
2023-03-06T03:29:13.653Z,20.14
2023-03-06T03:30:13.641Z,20.14
2023-03-06T03:31:13.590Z,20.17
2023-03-06T03:32:13.570Z,20.19
2023-03-06T03:33:13.470Z,20.19
2023-03-06T03:34:13.435Z,20.17
2023-03-06T03:35:13.374Z,20.18
2023-03-06T03:36:13.336Z,20.22
2023-03-06T03:37:13.287Z,20.22
2023-03-06T03:38:13.270Z,20.18
2023-03-06T03:39:13.211Z,20.21
2023-03-06T03:40:13.193Z,20.23
2023-03-06T03:41:13.144Z,20.22
2023-03-06T03:42:13.124Z,20.24
2023-03-06T03:43:13.079Z,20.21
2023-03-06T03:44:13.060Z,20.23
2023-03-06T03:45:12.996Z,20.24
2023-03-06T03:46:13.040Z,20.25
2023-03-06T03:47:12.918Z,20.26
2023-03-06T03:48:12.864Z,20.23
2023-03-06T03:49:12.809Z,20.26
2023-03-06T03:50:12.762Z,20.25
2023-03-06T03:51:12.717Z,20.25
2023-03-06T03:52:12.678Z,20.27
2023-03-06T03:53:12.633Z,20.29
2023-03-06T03:54:12.582Z,20.30
2023-03-06T03:55:12.580Z,20.29
2023-03-06T03:56:12.505Z,20.30
2023-03-06T03:57:12.459Z,20.31
2023-03-06T03:58:12.426Z,20.33
2023-03-06T03:59:12.372Z,20.35
2023-03-06T04:00:12.363Z,20.34
2023-03-06T04:01:12.290Z,20.34
2023-03-06T04:02:12.305Z,20.34
2023-03-06T04:03:12.223Z,20.35
2023-03-06T04:04:12.170Z,20.34
2023-03-06T04:05:12.238Z,20.31
2023-03-06T04:06:12.097Z,20.32
2023-03-06T04:07:12.044Z,20.30
2023-03-06T04:08:12.015Z,20.30
2023-03-06T04:09:11.992Z,20.28
2023-03-06T04:10:11.934Z,20.26
2023-03-06T04:11:11.895Z,20.24
2023-03-06T04:12:11.837Z,20.24
2023-03-06T04:13:11.793Z,20.24
2023-03-06T04:14:11.784Z,20.23
2023-03-06T04:15:11.725Z,20.23
2023-03-06T04:16:11.742Z,20.18
2023-03-06T04:17:11.634Z,20.17
2023-03-06T04:18:11.597Z,20.18
2023-03-06T04:19:11.604Z,20.14
2023-03-06T04:20:11.537Z,20.14
2023-03-06T04:21:11.514Z,20.14
2023-03-06T04:22:11.450Z,20.15
2023-03-06T04:23:11.400Z,20.13
2023-03-06T04:24:11.403Z,20.13
2023-03-06T04:25:11.382Z,20.10
2023-03-06T04:26:11.303Z,20.10
2023-03-06T04:27:11.317Z,20.11
2023-03-06T04:28:11.220Z,20.09
2023-03-06T04:29:11.172Z,20.08
2023-03-06T04:30:11.138Z,20.08
2023-03-06T04:31:11.140Z,20.07
2023-03-06T04:32:11.079Z,20.08
2023-03-06T04:33:11.012Z,20.05
2023-03-06T04:34:10.967Z,20.02
2023-03-06T04:35:10.932Z,20.03
2023-03-06T04:36:10.878Z,20.02
2023-03-06T04:37:10.843Z,20.02
2023-03-06T04:38:10.798Z,20.04
2023-03-06T04:39:10.819Z,20.03
2023-03-06T04:40:10.725Z,20.01
2023-03-06T04:41:10.659Z,19.99
2023-03-06T04:42:10.615Z,19.95
2023-03-06T04:43:10.544Z,19.98
2023-03-06T04:44:10.519Z,19.99
2023-03-06T04:45:10.454Z,19.99
2023-03-06T04:46:10.437Z,19.97
2023-03-06T04:47:10.398Z,19.97
2023-03-06T04:48:10.357Z,19.98
2023-03-06T04:49:10.279Z,20.00
2023-03-06T04:50:10.252Z,19.99
2023-03-06T04:51:10.189Z,19.98
2023-03-06T04:52:10.132Z,19.97
2023-03-06T04:53:10.086Z,19.96
2023-03-06T04:54:10.031Z,19.97
2023-03-06T04:55:10.025Z,19.94
2023-03-06T04:56:09.929Z,19.94
2023-03-06T04:57:09.888Z,19.92
2023-03-06T04:58:09.840Z,19.90
2023-03-06T04:59:09.795Z,19.90
2023-03-06T05:00:09.777Z,19.91
2023-03-06T05:01:09.719Z,19.91
2023-03-06T05:02:09.682Z,19.90
2023-03-06T05:03:09.674Z,19.87
2023-03-06T05:04:09.547Z,19.88
2023-03-06T05:05:09.518Z,19.89
2023-03-06T05:06:09.464Z,19.89
2023-03-06T05:07:09.401Z,19.88
2023-03-06T05:08:09.355Z,19.87
2023-03-06T05:09:09.316Z,19.87
2023-03-06T05:10:09.266Z,19.87
2023-03-06T05:11:09.227Z,19.87
2023-03-06T05:12:09.187Z,19.86
2023-03-06T05:13:09.127Z,19.77
2023-03-06T05:14:09.096Z,19.83
2023-03-06T05:15:09.061Z,19.84
2023-03-06T05:16:09.047Z,19.82
2023-03-06T05:17:08.961Z,19.84
2023-03-06T05:18:08.922Z,19.83
2023-03-06T05:19:08.883Z,19.83
2023-03-06T05:20:08.832Z,19.84
2023-03-06T05:21:08.774Z,19.83
2023-03-06T05:22:08.740Z,19.85
2023-03-06T05:23:08.695Z,19.87
2023-03-06T05:24:08.665Z,19.88
2023-03-06T05:25:08.611Z,19.86
2023-03-06T05:26:08.563Z,19.88
2023-03-06T05:27:08.537Z,19.90
2023-03-06T05:28:08.496Z,19.91
2023-03-06T05:29:08.444Z,19.91
2023-03-06T05:30:08.437Z,19.94
2023-03-06T05:31:08.354Z,19.95
2023-03-06T05:32:08.461Z,19.95
2023-03-06T05:33:08.272Z,19.97
2023-03-06T05:34:08.913Z,20.01
2023-03-06T05:35:08.206Z,19.98
2023-03-06T05:36:08.133Z,20.01
2023-03-06T05:37:08.077Z,19.99
2023-03-06T05:38:08.045Z,19.98
2023-03-06T05:39:08.014Z,19.98
2023-03-06T05:40:07.972Z,20.02
2023-03-06T05:41:07.913Z,20.00
2023-03-06T05:42:07.880Z,20.01
2023-03-06T05:43:07.830Z,20.02
2023-03-06T05:44:07.801Z,20.00
2023-03-06T05:45:07.792Z,20.06
2023-03-06T05:46:07.753Z,20.01
2023-03-06T05:47:07.673Z,20.06
2023-03-06T05:48:07.655Z,20.04
2023-03-06T05:49:07.582Z,20.07
2023-03-06T05:50:07.544Z,20.09
2023-03-06T05:51:07.474Z,20.09
2023-03-06T05:52:07.438Z,20.09
2023-03-06T05:53:07.392Z,20.09
2023-03-06T05:54:07.342Z,20.07
2023-03-06T05:55:07.369Z,20.12
2023-03-06T05:56:07.426Z,20.09
2023-03-06T05:57:07.208Z,20.12
2023-03-06T05:58:07.150Z,20.16
2023-03-06T05:59:07.129Z,20.08
2023-03-06T06:00:07.073Z,20.10
2023-03-06T06:01:07.036Z,20.16
2023-03-06T06:02:07.044Z,20.12
2023-03-06T06:03:06.948Z,20.16
2023-03-06T06:04:06.893Z,20.14
2023-03-06T06:05:06.817Z,20.15
2023-03-06T06:06:06.795Z,20.17
2023-03-06T06:07:06.729Z,20.17
2023-03-06T06:08:06.694Z,20.14
2023-03-06T06:09:06.664Z,20.19
2023-03-06T06:10:06.600Z,20.19
2023-03-06T06:11:06.605Z,20.20
2023-03-06T06:12:06.531Z,20.22
2023-03-06T06:13:06.459Z,20.21
2023-03-06T06:14:06.435Z,20.20
2023-03-06T06:15:06.397Z,20.21
2023-03-06T06:16:06.380Z,20.23
2023-03-06T06:17:06.292Z,20.25
2023-03-06T06:18:06.255Z,20.17
2023-03-06T06:19:06.270Z,20.24
2023-03-06T06:20:06.162Z,20.20
2023-03-06T06:21:06.132Z,20.23
2023-03-06T06:22:06.078Z,20.21
2023-03-06T06:23:06.044Z,20.23
2023-03-06T06:24:06.006Z,20.23
2023-03-06T06:25:05.965Z,20.24
2023-03-06T06:26:05.922Z,20.25
2023-03-06T06:27:05.870Z,20.27
2023-03-06T06:28:05.830Z,20.25
2023-03-06T06:29:05.769Z,20.24
2023-03-06T06:30:05.736Z,20.31
2023-03-06T06:31:05.749Z,20.30
2023-03-06T06:32:05.762Z,20.29
2023-03-06T06:33:05.604Z,20.31
2023-03-06T06:34:05.544Z,20.32
2023-03-06T06:35:05.700Z,20.30
2023-03-06T06:36:05.467Z,20.46
2023-03-06T06:37:05.407Z,20.67
2023-03-06T06:38:05.366Z,20.86
2023-03-06T06:39:05.365Z,21.08
2023-03-06T06:40:05.286Z,21.41
2023-03-06T06:41:33.449Z,21.64
2023-03-06T06:42:28.898Z,21.64
2023-03-06T06:43:06.116Z,21.90
2023-03-06T06:44:07.202Z,22.25
2023-03-06T06:45:05.029Z,22.38
2023-03-06T06:46:28.274Z,22.66
2023-03-06T06:48:05.992Z,23.03
2023-03-06T06:49:04.852Z,23.22
2023-03-06T06:50:04.775Z,23.51
2023-03-06T06:51:04.740Z,23.64
2023-03-06T06:52:04.671Z,23.69
2023-03-06T06:53:04.612Z,23.85
2023-03-06T06:54:04.593Z,23.84
2023-03-06T06:55:04.496Z,23.86
2023-03-06T06:56:04.518Z,24.01
2023-03-06T06:57:04.376Z,24.20
2023-03-06T06:58:04.318Z,24.32
2023-03-06T06:59:16.128Z,24.50
2023-03-06T07:00:05.209Z,24.61
2023-03-06T07:01:04.210Z,24.53
2023-03-06T07:02:04.115Z,24.63
2023-03-06T07:03:04.051Z,24.66
2023-03-06T07:04:04.189Z,24.83
2023-03-06T07:05:05.437Z,24.70
2023-03-06T07:06:03.846Z,24.55
2023-03-06T07:07:03.945Z,24.88
2023-03-06T07:08:03.773Z,24.97
2023-03-06T07:09:03.677Z,24.69
2023-03-06T07:10:03.644Z,24.96
2023-03-06T07:11:03.569Z,24.98
2023-03-06T07:12:03.537Z,25.47
2023-03-06T07:13:03.439Z,25.06
2023-03-06T07:14:03.384Z,25.18
2023-03-06T07:15:03.350Z,25.13
2023-03-06T07:16:03.303Z,25.12
2023-03-06T07:17:03.220Z,25.19
2023-03-06T07:18:03.176Z,25.18
2023-03-06T07:19:03.106Z,25.07
2023-03-06T07:20:03.042Z,24.94
2023-03-06T07:21:03.013Z,24.93
2023-03-06T07:22:02.927Z,24.99
2023-03-06T07:23:02.888Z,25.12
2023-03-06T07:24:02.794Z,25.02
2023-03-06T07:25:02.745Z,24.96
2023-03-06T07:26:02.696Z,24.98
2023-03-06T07:27:02.709Z,24.86
2023-03-06T07:28:02.591Z,25.25
2023-03-06T07:29:02.496Z,25.23
2023-03-06T07:30:03.005Z,25.17
2023-03-06T07:31:02.414Z,25.11
2023-03-06T07:32:02.427Z,25.02
2023-03-06T07:33:02.319Z,24.98
2023-03-06T07:34:04.823Z,25.03
2023-03-06T07:35:19.128Z,25.07
2023-03-06T07:36:03.204Z,24.99
2023-03-06T07:37:02.055Z,24.96
2023-03-06T07:38:02.011Z,24.89
2023-03-06T07:39:01.954Z,24.91
2023-03-06T07:40:01.875Z,24.92
2023-03-06T07:41:01.923Z,24.88
2023-03-06T07:42:01.775Z,24.97
2023-03-06T07:43:16.764Z,25.05
2023-03-06T07:44:02.686Z,24.79
2023-03-06T07:45:01.596Z,25.08
2023-03-06T07:46:02.481Z,25.21
2023-03-06T07:47:01.526Z,25.02
2023-03-06T07:48:01.450Z,25.21
2023-03-06T07:49:01.396Z,25.16
2023-03-06T07:50:01.330Z,25.35
2023-03-06T07:51:01.284Z,25.36
2023-03-06T07:52:01.261Z,25.42
2023-03-06T07:53:01.200Z,25.38
2023-03-06T07:54:01.126Z,25.30
2023-03-06T07:55:01.063Z,25.40
2023-03-06T07:56:01.098Z,25.35
2023-03-06T07:57:01.003Z,25.43
2023-03-06T07:58:00.887Z,25.48
2023-03-06T07:59:00.926Z,25.49
2023-03-06T08:00:00.863Z,25.75
2023-03-06T08:01:01.494Z,25.77
2023-03-06T08:02:00.742Z,25.92
2023-03-06T08:03:00.752Z,25.91
2023-03-06T08:05:00.503Z,25.85
2023-03-06T08:06:00.445Z,25.88
2023-03-06T08:07:00.402Z,25.96
2023-03-06T08:08:00.329Z,26.02
2023-03-06T08:09:00.370Z,26.09
2023-03-06T08:10:00.254Z,26.15
2023-03-06T08:11:00.140Z,26.22
2023-03-06T08:12:00.133Z,26.19
2023-03-06T08:13:00.034Z,26.17
2023-03-06T08:13:59.966Z,26.24
2023-03-06T08:15:00.036Z,26.22
2023-03-06T08:15:59.910Z,26.36
2023-03-06T08:16:59.760Z,26.28
2023-03-06T08:17:59.734Z,26.28
2023-03-06T08:18:59.669Z,26.22
2023-03-06T08:19:59.597Z,26.37
2023-03-06T08:20:59.531Z,26.17
2023-03-06T08:21:59.458Z,26.33
2023-03-06T08:22:59.423Z,26.32
2023-03-06T08:23:59.336Z,26.41
2023-03-06T08:24:59.293Z,26.22
2023-03-06T08:25:59.253Z,26.28
2023-03-06T08:26:59.166Z,26.37
2023-03-06T08:27:59.170Z,26.18
2023-03-06T08:28:59.070Z,26.14
2023-03-06T08:29:58.992Z,26.18
2023-03-06T08:30:58.958Z,26.04
2023-03-06T08:31:58.923Z,26.06
2023-03-06T08:32:58.882Z,26.05
2023-03-06T08:33:58.862Z,26.27
2023-03-06T08:34:58.694Z,26.23
2023-03-06T08:36:00.661Z,26.09
2023-03-06T08:36:58.707Z,26.12
2023-03-06T08:37:58.961Z,25.90
2023-03-06T08:38:58.500Z,25.95
2023-03-06T08:39:58.493Z,26.06
2023-03-06T08:40:58.333Z,26.21
2023-03-06T08:41:58.271Z,25.98
2023-03-06T08:42:58.670Z,25.99
2023-03-06T08:43:58.155Z,25.94
2023-03-06T08:44:58.092Z,25.90
2023-03-06T08:45:58.130Z,25.72
2023-03-06T08:46:57.959Z,25.56
2023-03-06T08:47:57.905Z,25.64
2023-03-06T08:48:57.853Z,25.63
2023-03-06T08:49:59.446Z,25.36
2023-03-06T08:50:58.015Z,25.40
2023-03-06T08:51:57.904Z,25.43
2023-03-06T08:52:57.870Z,25.31
2023-03-06T08:53:57.826Z,25.40
2023-03-06T08:54:57.866Z,25.14
2023-03-06T08:55:57.759Z,25.12
2023-03-06T08:56:57.636Z,25.09
2023-03-06T08:57:57.668Z,25.15
2023-03-06T08:58:57.671Z,24.92
2023-03-06T08:59:57.697Z,25.00
2023-03-06T09:00:57.817Z,25.06
2023-03-06T09:01:57.700Z,24.94
2023-03-06T09:02:57.627Z,24.91
2023-03-06T09:03:57.683Z,24.76
2023-03-06T09:04:57.684Z,24.91
2023-03-06T09:36:57.771Z,24.71
2023-03-06T09:37:57.117Z,24.74
2023-03-06T09:38:57.058Z,24.65
2023-03-06T09:39:57.028Z,24.44
2023-03-06T09:40:56.939Z,24.28
2023-03-06T09:41:56.963Z,24.17
2023-03-06T11:26:15.917Z,18.28
2023-03-06T12:23:52.138Z,26.28
2023-03-06T12:24:52.124Z,26.21
2023-03-06T12:25:52.035Z,26.24
2023-03-06T12:26:52.017Z,26.26
2023-03-06T12:27:51.909Z,26.54
2023-03-06T12:28:51.847Z,26.56
2023-03-06T12:30:51.778Z,25.88
2023-03-06T12:31:51.719Z,25.88
2023-03-06T12:33:51.789Z,26.05
2023-03-06T12:34:51.501Z,25.90
2023-03-06T12:35:51.461Z,25.64
2023-03-06T12:36:51.338Z,25.59
2023-03-06T12:37:51.313Z,25.38
2023-03-06T12:38:51.251Z,25.12
2023-03-06T12:39:51.282Z,25.00
2023-03-06T12:40:51.141Z,24.93
2023-03-06T12:41:51.036Z,24.83
2023-03-06T12:42:50.978Z,24.60
2023-03-06T12:43:51.117Z,24.43
2023-03-06T12:44:50.944Z,24.30
2023-03-06T12:45:50.832Z,24.09
2023-03-06T12:46:50.741Z,23.98
2023-03-06T12:47:50.704Z,23.80
2023-03-06T12:48:50.626Z,23.69
2023-03-06T12:49:50.552Z,23.58
2023-03-06T12:50:50.522Z,23.49
2023-03-06T12:51:50.418Z,23.32
2023-03-06T12:52:50.662Z,23.23
2023-03-06T12:53:50.349Z,23.16
2023-03-06T12:54:50.225Z,23.03
2023-03-06T12:55:50.166Z,22.85
2023-03-06T12:56:50.074Z,22.76
2023-03-06T12:57:50.019Z,22.78
2023-03-06T12:58:49.941Z,22.68
2023-03-06T13:56:46.388Z,20.40
2023-03-06T14:04:45.919Z,20.32
2023-03-06T14:17:45.156Z,20.19
2023-03-06T14:25:44.699Z,20.10
2023-03-06T14:26:44.632Z,20.19
2023-03-06T14:27:44.584Z,20.16
2023-03-06T14:28:44.515Z,20.17
2023-03-06T14:35:44.156Z,20.11
2023-03-06T14:36:44.068Z,20.21
2023-03-06T14:37:44.018Z,20.07
2023-03-06T14:38:43.961Z,20.05
2023-03-06T14:39:43.904Z,20.22
2023-03-06T14:40:43.825Z,20.16
2023-03-06T14:42:43.717Z,20.24
2023-03-06T14:43:43.677Z,20.22
2023-03-06T14:44:45.070Z,20.17
2023-03-06T14:45:43.614Z,19.98
2023-03-06T14:46:43.499Z,20.16
2023-03-06T14:47:43.427Z,20.22
2023-03-06T14:48:43.377Z,20.19
2023-03-06T14:49:43.306Z,20.24
2023-03-06T14:50:43.249Z,20.18
2023-03-06T14:51:43.259Z,20.20
2023-03-06T14:52:43.180Z,19.89
2023-03-06T14:53:43.074Z,20.19
2023-03-06T14:54:43.717Z,20.27
2023-03-06T14:55:42.969Z,20.13
2023-03-06T14:56:42.991Z,20.07
2023-03-06T14:57:42.906Z,20.07
2023-03-06T14:58:42.821Z,20.22
2023-03-06T14:59:42.757Z,20.20
2023-03-06T15:00:42.699Z,20.22
2023-03-06T15:01:42.647Z,20.10
2023-03-06T15:02:43.198Z,20.11
2023-03-06T15:03:42.517Z,20.28
2023-03-06T15:04:42.488Z,20.27
2023-03-06T15:05:42.400Z,20.24
2023-03-06T15:06:42.353Z,20.28
2023-03-06T15:07:42.380Z,20.25
2023-03-06T15:08:42.208Z,20.21
2023-03-06T15:09:42.204Z,20.28
2023-03-06T15:10:42.109Z,20.04
2023-03-06T15:11:42.071Z,20.24
2023-03-06T15:12:42.054Z,20.33
2023-03-06T15:13:42.078Z,20.31
2023-03-06T15:14:42.021Z,20.29
2023-03-06T15:15:41.853Z,20.33
2023-03-06T15:16:41.836Z,20.28
2023-03-06T15:17:41.796Z,20.34
2023-03-06T15:18:41.703Z,20.16
2023-03-06T15:19:41.708Z,20.14
2023-03-06T15:20:41.600Z,20.33
2023-03-06T15:21:41.553Z,20.21
2023-03-06T15:22:41.493Z,20.31
2023-03-06T15:23:41.548Z,20.37
2023-03-06T15:24:41.404Z,20.36
2023-03-06T15:25:41.306Z,20.52
2023-03-06T15:26:41.346Z,20.49
2023-03-06T15:27:41.213Z,20.43
2023-03-06T15:28:41.119Z,20.33
2023-03-06T15:29:41.083Z,20.39
2023-03-06T15:30:41.011Z,20.44
2023-03-06T15:31:40.982Z,20.32
2023-03-06T15:32:40.946Z,20.37
2023-03-06T15:33:40.988Z,20.38
2023-03-06T15:34:40.778Z,20.47
2023-03-06T15:35:40.758Z,20.46
2023-03-06T15:36:40.651Z,20.38
2023-03-06T15:37:40.611Z,20.36
2023-03-06T15:38:40.554Z,20.46
2023-03-06T15:39:40.516Z,20.34
2023-03-06T15:40:40.477Z,20.43
2023-03-06T15:41:40.393Z,20.27
2023-03-06T15:42:40.350Z,20.20
2023-03-06T15:43:40.311Z,20.36
2023-03-06T15:44:40.250Z,20.46
2023-03-06T15:45:40.170Z,20.31
2023-03-06T15:46:40.214Z,20.39
2023-03-06T15:47:40.084Z,20.44
2023-03-06T15:48:40.040Z,20.44
2023-03-06T15:49:39.988Z,20.47
2023-03-06T15:50:39.935Z,20.38
2023-03-06T15:51:39.877Z,20.44
2023-03-06T15:52:39.771Z,20.45
2023-03-06T15:53:39.771Z,20.46
2023-03-06T15:54:39.723Z,20.45
2023-03-06T15:55:39.621Z,20.43
2023-03-06T15:56:39.595Z,20.30
2023-03-06T15:57:39.515Z,20.37
2023-03-06T15:58:39.446Z,20.41
2023-03-06T15:59:39.390Z,20.38
2023-03-06T16:00:39.357Z,20.43
2023-03-06T16:01:39.278Z,20.43
2023-03-06T16:02:39.209Z,20.42
2023-03-06T16:03:39.202Z,20.42
2023-03-06T16:04:39.204Z,20.47
2023-03-06T16:05:39.050Z,20.48
2023-03-06T16:06:38.994Z,20.46
2023-03-06T16:07:38.928Z,20.50
2023-03-06T16:08:38.896Z,20.52
2023-03-06T16:09:38.824Z,20.44
2023-03-06T16:10:39.198Z,20.47
2023-03-06T16:11:43.938Z,20.47
2023-03-06T16:12:39.618Z,20.48
2023-03-06T16:13:38.565Z,20.52
2023-03-06T16:14:38.497Z,20.47
2023-03-06T16:15:38.457Z,20.42
2023-03-06T16:16:38.455Z,20.47
2023-03-06T16:17:38.328Z,20.55
2023-03-06T16:18:38.264Z,20.50
2023-03-06T16:19:38.198Z,20.47
2023-03-06T16:20:38.151Z,20.46
2023-03-06T16:21:38.063Z,20.47
2023-03-06T16:22:38.010Z,20.53
2023-03-06T16:23:37.995Z,20.51
2023-03-06T16:24:37.897Z,20.51
2023-03-06T16:25:37.830Z,20.51
2023-03-06T16:26:37.764Z,20.52
2023-03-06T16:27:37.696Z,20.55
2023-03-06T16:28:37.665Z,20.55
2023-03-06T16:29:37.567Z,20.51
2023-03-06T16:30:37.556Z,20.51
2023-03-06T16:31:37.467Z,20.49
2023-03-06T16:32:37.434Z,20.55
2023-03-06T16:33:37.327Z,20.53
2023-03-06T16:34:37.267Z,20.51
2023-03-06T16:35:37.222Z,20.57
2023-03-06T16:36:37.144Z,20.58
2023-03-06T16:37:37.073Z,20.44
2023-03-06T16:38:37.028Z,20.50
2023-03-06T16:39:36.964Z,20.43
2023-03-06T16:40:36.934Z,20.51
2023-03-06T16:41:36.837Z,20.54
2023-03-06T16:42:36.772Z,20.50
2023-03-06T16:43:36.731Z,20.56
2023-03-06T16:44:36.695Z,20.54
2023-03-06T16:45:36.628Z,20.57
2023-03-06T16:46:36.569Z,20.58
2023-03-06T16:47:36.492Z,20.53
2023-03-06T16:48:36.430Z,20.59
2023-03-06T16:49:36.422Z,20.56
2023-03-06T16:50:36.354Z,20.57
2023-03-06T16:51:36.281Z,20.60
2023-03-06T16:52:36.235Z,20.53
2023-03-06T16:53:36.204Z,20.55
2023-03-06T16:54:36.132Z,20.56
2023-03-06T16:55:36.153Z,20.52
2023-03-06T16:56:36.011Z,20.55
2023-03-06T16:57:35.981Z,20.50
2023-03-06T16:58:35.905Z,20.46
2023-03-06T16:59:35.843Z,20.54
2023-03-06T17:00:35.780Z,20.58
2023-03-06T17:01:35.796Z,20.58
2023-03-06T17:02:35.751Z,20.55
2023-03-06T17:03:35.637Z,20.52
2023-03-06T17:04:35.573Z,20.55
2023-03-06T17:05:35.531Z,20.56
2023-03-06T17:06:35.546Z,20.55
2023-03-06T17:07:35.452Z,20.60
2023-03-06T17:08:35.370Z,20.59
2023-03-06T17:09:35.334Z,20.61
2023-03-06T17:10:35.284Z,20.56
2023-03-06T17:11:35.217Z,20.61
2023-03-06T17:12:35.179Z,20.56
2023-03-06T17:13:35.119Z,20.55
2023-03-06T17:14:35.075Z,20.58
2023-03-06T17:15:35.099Z,20.56
2023-03-06T17:16:34.972Z,20.58
2023-03-06T17:17:34.917Z,20.57
2023-03-06T17:18:34.896Z,20.58
2023-03-06T17:19:34.849Z,20.55
2023-03-06T17:20:34.770Z,20.58
2023-03-06T17:21:34.709Z,20.63
2023-03-06T17:22:34.673Z,20.57
2023-03-06T17:23:34.606Z,20.65
2023-03-06T17:24:34.549Z,20.59
2023-03-06T17:25:34.509Z,20.61
2023-03-06T17:26:34.442Z,20.62
2023-03-06T17:27:34.407Z,20.54
2023-03-06T17:28:34.346Z,20.59
2023-03-06T17:29:34.292Z,20.49
2023-03-06T17:30:34.242Z,20.61
2023-03-06T17:31:34.222Z,20.60
2023-03-06T17:32:34.199Z,20.64
2023-03-06T17:33:34.096Z,20.56
2023-03-06T17:34:34.032Z,20.68
2023-03-06T17:35:33.989Z,20.52
2023-03-06T17:36:33.936Z,20.56
2023-03-06T17:37:33.942Z,20.67
2023-03-06T17:38:33.825Z,20.63
2023-03-06T17:39:33.788Z,20.66
2023-03-06T17:40:34.682Z,20.66
2023-03-06T17:41:33.678Z,20.65
2023-03-06T17:42:33.643Z,20.63
2023-03-06T17:43:33.592Z,20.60
2023-03-06T17:44:33.540Z,20.61
2023-03-06T17:45:33.619Z,20.62
2023-03-06T17:46:33.435Z,20.60
2023-03-06T17:47:33.389Z,20.62
2023-03-06T17:48:33.352Z,20.63
2023-03-06T17:49:33.327Z,20.65
2023-03-06T17:50:33.237Z,20.64
2023-03-06T17:51:33.226Z,20.72
2023-03-06T17:52:33.163Z,20.64
2023-03-06T17:53:33.113Z,20.66
2023-03-06T17:54:33.067Z,20.60
2023-03-06T17:55:33.029Z,20.60
2023-03-06T17:56:32.957Z,20.66
2023-03-06T17:57:32.949Z,20.62
2023-03-06T17:58:32.891Z,20.68
2023-03-06T17:59:32.819Z,20.70
2023-03-06T18:00:32.776Z,20.68
2023-03-06T18:01:32.775Z,20.71
2023-03-06T18:02:32.690Z,20.72
2023-03-06T18:03:32.659Z,20.69
2023-03-06T18:04:32.609Z,20.71
2023-03-06T18:05:32.553Z,20.72
2023-03-06T18:06:33.217Z,20.70
2023-03-06T18:07:32.459Z,20.67
2023-03-06T18:08:32.409Z,20.72
2023-03-06T18:09:32.368Z,20.67
2023-03-06T18:10:32.321Z,20.67
2023-03-06T18:11:32.283Z,20.74
2023-03-06T18:12:32.229Z,20.68
2023-03-06T18:13:32.194Z,20.62
2023-03-06T18:14:32.136Z,20.65
2023-03-06T18:15:32.105Z,20.67
2023-03-06T18:16:32.138Z,20.74
2023-03-06T18:17:32.117Z,20.71
2023-03-06T18:18:31.985Z,20.71
2023-03-06T18:19:31.908Z,20.76
2023-03-06T18:20:31.858Z,20.74